| time (UTC) | temp F | wind direction | speed MPH | gust MPH | rain 1hr in | rain 24hr in | rain mn in | humidity % | barometer mb |
| 20260508115003 | 48 | 353 | 6.0 | 9.0 | 0.00 | 0.00 | 0.00 | 37 | 1017.4 |
| 20260508114503 | 48 | 354 | 6.0 | 8.0 | 0.00 | 0.00 | 0.00 | 37 | 1017.5 |
| 20260508114217 | 48 | 354 | 6.0 | 8.0 | 0.00 | 0.00 | 0.00 | 37 | 1017.5 |
| 20260508113503 | 48 | 354 | 6.0 | 8.0 | 0.00 | 0.00 | 0.00 | 37 | 1017.5 |
| 20260508113003 | 48 | 355 | 7.0 | 8.0 | 0.00 | 0.00 | 0.00 | 37 | 1017.5 |
| 20260508112504 | 48 | 355 | 7.0 | 8.0 | 0.00 | 0.00 | 0.00 | 38 | 1017.5 |
| 20260508112003 | 48 | 355 | 6.0 | 8.0 | 0.00 | 0.00 | 0.00 | 38 | 1017.5 |
| 20260508111503 | 48 | 355 | 6.0 | 8.0 | 0.00 | 0.00 | 0.00 | 38 | 1017.5 |
| 20260508111003 | 48 | 355 | 6.0 | 8.0 | 0.00 | 0.00 | 0.00 | 38 | 1017.5 |
| 20260508110718 | 47 | 355 | 5.0 | 6.0 | 0.00 | 0.00 | 0.00 | 39 | 1017.5 |
| 20260508110003 | 47 | 355 | 6.0 | 8.0 | 0.00 | 0.00 | 0.00 | 39 | 1017.6 |
| 20260508105718 | 46 | 355 | 6.0 | 8.0 | 0.00 | 0.00 | 0.00 | 41 | 1017.6 |
| 20260508105003 | 47 | 355 | 6.0 | 8.0 | 0.00 | 0.00 | 0.00 | 39 | 1017.6 |
| 20260508104503 | 48 | 355 | 6.0 | 8.0 | 0.00 | 0.00 | 0.00 | 37 | 1017.7 |
| 20260508104003 | 48 | 355 | 6.0 | 8.0 | 0.00 | 0.00 | 0.00 | 38 | 1017.6 |
| 20260508103503 | 48 | 355 | 7.0 | 8.0 | 0.00 | 0.00 | 0.00 | 38 | 1017.5 |
| 20260508103003 | 48 | 355 | 7.0 | 8.0 | 0.00 | 0.00 | 0.00 | 39 | 1017.5 |
| 20260508102503 | 46 | 358 | 7.0 | 8.0 | 0.00 | 0.00 | 0.00 | 41 | 1017.5 |
| 20260508102003 | 43 | 10 | 7.0 | 8.0 | 0.00 | 0.00 | 0.00 | 46 | 1017.5 |
| 20260508101503 | 40 | 20 | 6.0 | 8.0 | 0.00 | 0.00 | 0.00 | 48 | 1017.5 |
| 20260508101003 | 43 | 11 | 7.0 | 8.0 | 0.00 | 0.00 | 0.00 | 42 | 1017.6 |
| 20260508100503 | 47 | 359 | 7.0 | 9.0 | 0.00 | 0.00 | 0.00 | 39 | 1017.5 |
| 20260508100003 | 48 | 355 | 8.0 | 10.0 | 0.00 | 0.00 | 0.00 | 38 | 1017.5 |
| 20260508095503 | 48 | 353 | 8.0 | 10.0 | 0.00 | 0.00 | 0.00 | 39 | 1017.5 |
| 20260508095003 | 47 | 348 | 9.0 | 10.0 | 0.00 | 0.00 | 0.00 | 39 | 1017.4 |
| 20260508094503 | 47 | 346 | 9.0 | 10.0 | 0.00 | 0.00 | 0.00 | 39 | 1017.4 |
| 20260508094003 | 47 | 346 | 9.0 | 10.0 | 0.00 | 0.00 | 0.00 | 40 | 1017.4 |
| 20260508093717 | 47 | 346 | 9.0 | 10.0 | 0.00 | 0.00 | 0.00 | 40 | 1017.3 |
| 20260508093218 | 46 | 347 | 8.0 | 10.0 | 0.00 | 0.00 | 0.00 | 41 | 1017.3 |
| 20260508092503 | 47 | 348 | 8.0 | 9.0 | 0.00 | 0.00 | 0.00 | 40 | 1017.5 |
| 20260508092218 | 47 | 348 | 8.0 | 9.0 | 0.00 | 0.00 | 0.00 | 40 | 1017.5 |
| 20260508091503 | 47 | 350 | 7.0 | 9.0 | 0.00 | 0.00 | 0.00 | 40 | 1017.5 |
| 20260508091003 | 47 | 354 | 6.0 | 9.0 | 0.00 | 0.00 | 0.00 | 40 | 1017.5 |
| 20260508090503 | 47 | 353 | 7.0 | 8.0 | 0.00 | 0.00 | 0.00 | 40 | 1017.5 |
| 20260508090003 | 47 | 351 | 7.0 | 9.0 | 0.00 | 0.00 | 0.00 | 40 | 1017.6 |
| 20260508085503 | 47 | 348 | 7.0 | 9.0 | 0.00 | 0.00 | 0.00 | 40 | 1017.6 |
| 20260508085003 | 47 | 347 | 7.0 | 9.0 | 0.00 | 0.00 | 0.00 | 40 | 1017.7 |
| 20260508084717 | 47 | 346 | 7.0 | 9.0 | 0.00 | 0.00 | 0.00 | 40 | 1017.7 |
| 20260508084003 | 47 | 346 | 8.0 | 9.0 | 0.00 | 0.00 | 0.00 | 40 | 1017.7 |
| 20260508083503 | 47 | 346 | 7.0 | 9.0 | 0.00 | 0.00 | 0.00 | 40 | 1017.7 |
| 20260508083003 | 46 | 345 | 7.0 | 9.0 | 0.00 | 0.00 | 0.00 | 40 | 1017.7 |
| 20260508082717 | 46 | 345 | 7.0 | 9.0 | 0.00 | 0.00 | 0.00 | 40 | 1017.8 |
| 20260508082003 | 46 | 346 | 7.0 | 9.0 | 0.00 | 0.00 | 0.00 | 41 | 1017.8 |
| 20260508081503 | 45 | 349 | 7.0 | 9.0 | 0.00 | 0.00 | 0.00 | 42 | 1017.8 |
| 20260508081218 | 45 | 351 | 7.0 | 9.0 | 0.00 | 0.00 | 0.00 | 42 | 1017.7 |
| 20260508080503 | 45 | 354 | 5.0 | 8.0 | 0.00 | 0.00 | 0.00 | 41 | 1017.8 |
| 20260508080218 | 46 | 353 | 5.0 | 6.0 | 0.00 | 0.00 | 0.00 | 40 | 1017.8 |
| 20260508075503 | 46 | 353 | 5.0 | 6.0 | 0.00 | 0.00 | 0.00 | 40 | 1017.8 |
| 20260508075218 | 46 | 352 | 5.0 | 6.0 | 0.00 | 0.00 | 0.00 | 40 | 1017.8 |
| 20260508074503 | 46 | 347 | 5.0 | 8.0 | 0.00 | 0.00 | 0.00 | 39 | 1017.8 |
| 20260508074003 | 47 | 343 | 7.0 | 9.0 | 0.00 | 0.00 | 0.00 | 39 | 1017.9 |
| 20260508073503 | 46 | 340 | 7.0 | 9.0 | 0.00 | 0.00 | 0.00 | 39 | 1017.9 |
| 20260508073217 | 46 | 338 | 7.0 | 9.0 | 0.00 | 0.00 | 0.00 | 39 | 1017.9 |
| 20260508072503 | 47 | 332 | 6.0 | 8.0 | 0.00 | 0.00 | 0.00 | 39 | 1018.0 |
| 20260508072217 | 47 | 333 | 6.0 | 9.0 | 0.00 | 0.00 | 0.00 | 39 | 1017.9 |
| 20260508071716 | 47 | 333 | 6.0 | 9.0 | 0.00 | 0.00 | 0.00 | 39 | 1017.9 |
| 20260508071003 | 47 | 334 | 7.0 | 9.0 | 0.00 | 0.00 | 0.00 | 38 | 1017.8 |
| 20260508070503 | 48 | 339 | 7.0 | 9.0 | 0.00 | 0.00 | 0.00 | 36 | 1017.9 |
| 20260508070004 | 49 | 344 | 8.0 | 9.0 | 0.00 | 0.00 | 0.00 | 35 | 1017.9 |
| 20260508065503 | 49 | 348 | 8.0 | 9.0 | 0.00 | 0.00 | 0.00 | 35 | 1017.9 |
| 20260508065003 | 49 | 350 | 8.0 | 9.0 | 0.00 | 0.00 | 0.00 | 36 | 1017.9 |
| 20260508064718 | 49 | 351 | 7.0 | 9.0 | 0.00 | 0.00 | 0.00 | 36 | 1017.9 |
| 20260508064003 | 49 | 353 | 7.0 | 8.0 | 0.00 | 0.00 | 0.00 | 36 | 1018.0 |
| 20260508063503 | 49 | 349 | 8.0 | 9.0 | 0.00 | 0.00 | 0.00 | 36 | 1017.9 |
| 20260508063003 | 49 | 344 | 7.0 | 9.0 | 0.00 | 0.00 | 0.00 | 36 | 1017.9 |
| 20260508062503 | 50 | 343 | 7.0 | 9.0 | 0.00 | 0.00 | 0.00 | 36 | 1018.0 |
| 20260508062003 | 50 | 342 | 7.0 | 9.0 | 0.00 | 0.00 | 0.00 | 35 | 1017.9 |
| 20260508061718 | 50 | 341 | 7.0 | 9.0 | 0.00 | 0.00 | 0.00 | 35 | 1017.9 |
| 20260508061003 | 50 | 328 | 5.0 | 9.0 | 0.00 | 0.00 | 0.00 | 35 | 1017.8 |
| 20260508060503 | 51 | 314 | 5.0 | 7.0 | 0.00 | 0.00 | 0.00 | 34 | 1017.9 |
| 20260508060003 | 51 | 301 | 6.0 | 9.0 | 0.00 | 0.00 | 0.00 | 34 | 1017.9 |
| 20260508055503 | 52 | 295 | 5.0 | 9.0 | 0.00 | 0.00 | 0.00 | 33 | 1017.9 |
| 20260508055003 | 52 | 320 | 4.0 | 8.0 | 0.00 | 0.00 | 0.00 | 32 | 1017.9 |
| 20260508054503 | 53 | 346 | 4.0 | 5.0 | 0.00 | 0.00 | 0.00 | 32 | 1017.8 |
| 20260508054003 | 53 | 344 | 5.0 | 8.0 | 0.00 | 0.00 | 0.00 | 32 | 1017.7 |
| 20260508053503 | 53 | 343 | 6.0 | 8.0 | 0.00 | 0.00 | 0.00 | 31 | 1017.8 |
| 20260508053003 | 54 | 343 | 6.0 | 8.0 | 0.00 | 0.00 | 0.00 | 31 | 1017.7 |
| 20260508052718 | 54 | 344 | 6.0 | 8.0 | 0.00 | 0.00 | 0.00 | 31 | 1017.7 |
| 20260508052003 | 54 | 349 | 5.0 | 8.0 | 0.00 | 0.00 | 0.00 | 31 | 1017.8 |
| 20260508051503 | 53 | 352 | 5.0 | 6.0 | 0.00 | 0.00 | 0.00 | 32 | 1017.8 |
| 20260508051003 | 53 | 354 | 5.0 | 6.0 | 0.00 | 0.00 | 0.00 | 32 | 1017.9 |
| 20260508050504 | 53 | 350 | 6.0 | 8.0 | 0.00 | 0.00 | 0.00 | 32 | 1017.8 |
| 20260508050003 | 53 | 347 | 6.0 | 8.0 | 0.00 | 0.00 | 0.00 | 32 | 1017.8 |
| 20260508045503 | 53 | 351 | 7.0 | 10.0 | 0.00 | 0.00 | 0.00 | 32 | 1017.7 |
| 20260508045003 | 53 | 352 | 8.0 | 11.0 | 0.00 | 0.00 | 0.00 | 32 | 1017.8 |
| 20260508044503 | 53 | 354 | 8.0 | 11.0 | 0.00 | 0.00 | 0.00 | 32 | 1017.8 |
| 20260508044003 | 53 | 2 | 5.0 | 11.0 | 0.00 | 0.00 | 0.00 | 32 | 1017.8 |
| 20260508043717 | 53 | 8 | 5.0 | 10.0 | 0.00 | 0.00 | 0.00 | 32 | 1017.8 |
| 20260508043003 | 53 | 15 | 5.0 | 7.0 | 0.00 | 0.00 | 0.00 | 32 | 1017.8 |
| 20260508042717 | 53 | 15 | 4.0 | 7.0 | 0.00 | 0.00 | 0.00 | 32 | 1017.8 |
| 20260508042003 | 53 | 13 | 5.0 | 7.0 | 0.00 | 0.00 | 0.00 | 31 | 1017.8 |
| 20260508041504 | 54 | 8 | 5.0 | 8.0 | 0.00 | 0.00 | 0.00 | 31 | 1017.8 |
| 20260508041003 | 54 | 3 | 6.0 | 10.0 | 0.00 | 0.00 | 0.00 | 30 | 1017.8 |
| 20260508040717 | 54 | 359 | 7.0 | 11.0 | 0.00 | 0.00 | 0.00 | 30 | 1017.7 |
| 20260508040003 | 55 | 354 | 8.0 | 11.0 | 0.00 | 0.00 | 0.00 | 29 | 1017.5 |
| 20260508035503 | 54 | 1 | 7.0 | 11.0 | 0.00 | 0.00 | 0.00 | 30 | 1017.5 |
| 20260508035003 | 54 | 8 | 6.0 | 8.0 | 0.00 | 0.00 | 0.00 | 30 | 1017.5 |
| 20260508034503 | 54 | 11 | 6.0 | 8.0 | 0.00 | 0.00 | 0.00 | 30 | 1017.5 |
| 20260508034218 | 54 | 10 | 6.0 | 8.0 | 0.00 | 0.00 | 0.00 | 30 | 1017.5 |
| 20260508033503 | 55 | 355 | 7.0 | 10.0 | 0.00 | 0.00 | 0.00 | 29 | 1017.4 |
| 20260508033003 | 55 | 346 | 8.0 | 12.0 | 0.00 | 0.00 | 0.00 | 28 | 1017.3 |
| 20260508032717 | 56 | 345 | 9.0 | 12.0 | 0.00 | 0.00 | 0.00 | 28 | 1017.3 |
| 20260508032218 | 56 | 341 | 9.0 | 12.0 | 0.00 | 0.00 | 0.00 | 28 | 1017.2 |
| 20260508031503 | 55 | 340 | 8.0 | 13.0 | 0.00 | 0.00 | 0.00 | 28 | 1017.0 |
| 20260508031003 | 55 | 337 | 6.0 | 10.0 | 0.00 | 0.00 | 0.00 | 29 | 1017.0 |
| 20260508030503 | 56 | 328 | 6.0 | 10.0 | 0.00 | 0.00 | 0.00 | 29 | 1017.0 |
| 20260508030003 | 56 | 321 | 6.0 | 10.0 | 0.00 | 0.00 | 0.00 | 28 | 1017.0 |
| 20260508025717 | 56 | 320 | 6.0 | 10.0 | 0.00 | 0.00 | 0.00 | 28 | 1017.0 |
| 20260508025003 | 56 | 315 | 8.0 | 10.0 | 0.00 | 0.00 | 0.00 | 28 | 1016.8 |
| 20260508024503 | 56 | 312 | 9.0 | 14.0 | 0.00 | 0.00 | 0.00 | 28 | 1016.7 |
| 20260508024003 | 57 | 311 | 10.0 | 15.0 | 0.00 | 0.00 | 0.00 | 28 | 1016.6 |
| 20260508023503 | 57 | 309 | 12.0 | 16.0 | 0.00 | 0.00 | 0.00 | 27 | 1016.6 |
| 20260508023217 | 57 | 307 | 12.0 | 20.0 | 0.00 | 0.00 | 0.00 | 27 | 1016.6 |
| 20260508022503 | 57 | 302 | 15.0 | 21.0 | 0.00 | 0.00 | 0.00 | 27 | 1016.4 |
| 20260508022003 | 58 | 301 | 16.0 | 28.0 | 0.00 | 0.00 | 0.00 | 27 | 1016.3 |
| 20260508021503 | 58 | 301 | 17.0 | 28.0 | 0.00 | 0.00 | 0.00 | 26 | 1016.2 |
| 20260508021003 | 58 | 300 | 18.0 | 28.0 | 0.00 | 0.00 | 0.00 | 26 | 1016.1 |
| 20260508020503 | 58 | 299 | 19.0 | 29.0 | 0.00 | 0.00 | 0.00 | 26 | 1016.1 |
| 20260508020003 | 59 | 302 | 18.0 | 29.0 | 0.00 | 0.00 | 0.00 | 25 | 1015.9 |
| 20260508015503 | 59 | 307 | 16.0 | 23.0 | 0.00 | 0.00 | 0.00 | 25 | 1015.9 |
| 20260508015217 | 59 | 306 | 17.0 | 29.0 | 0.00 | 0.00 | 0.00 | 25 | 1015.9 |
| 20260508014503 | 59 | 302 | 18.0 | 29.0 | 0.00 | 0.00 | 0.00 | 25 | 1015.8 |
| 20260508014003 | 59 | 300 | 18.0 | 26.0 | 0.00 | 0.00 | 0.00 | 25 | 1015.8 |
| 20260508013503 | 60 | 301 | 19.0 | 26.0 | 0.00 | 0.00 | 0.00 | 25 | 1015.7 |
| 20260508013003 | 60 | 303 | 17.0 | 26.0 | 0.00 | 0.00 | 0.00 | 24 | 1015.6 |
| 20260508012503 | 60 | 301 | 17.0 | 26.0 | 0.00 | 0.00 | 0.00 | 24 | 1015.6 |
| 20260508012003 | 60 | 299 | 19.0 | 26.0 | 0.00 | 0.00 | 0.00 | 24 | 1015.5 |
| 20260508011503 | 60 | 301 | 18.0 | 27.0 | 0.00 | 0.00 | 0.00 | 24 | 1015.6 |
| 20260508011003 | 61 | 299 | 19.0 | 27.0 | 0.00 | 0.00 | 0.00 | 23 | 1015.6 |
| 20260508010503 | 62 | 295 | 19.0 | 26.0 | 0.00 | 0.00 | 0.00 | 23 | 1015.5 |
| 20260508010003 | 62 | 295 | 19.0 | 28.0 | 0.00 | 0.00 | 0.00 | 22 | 1015.4 |
| 20260508005503 | 62 | 293 | 19.0 | 28.0 | 0.00 | 0.00 | 0.00 | 22 | 1015.4 |
| 20260508005003 | 63 | 290 | 19.0 | 28.0 | 0.00 | 0.00 | 0.00 | 22 | 1015.4 |
| 20260508004718 | 62 | 288 | 20.0 | 28.0 | 0.00 | 0.00 | 0.00 | 21 | 1015.5 |
| 20260508004003 | 63 | 286 | 21.0 | 29.0 | 0.00 | 0.00 | 0.00 | 21 | 1015.6 |
| 20260508003503 | 63 | 283 | 20.0 | 29.0 | 0.00 | 0.00 | 0.00 | 21 | 1015.5 |
| 20260508003003 | 63 | 280 | 20.0 | 30.0 | 0.00 | 0.00 | 0.00 | 21 | 1015.5 |
| 20260508002503 | 63 | 285 | 18.0 | 30.0 | 0.00 | 0.00 | 0.00 | 21 | 1015.6 |
| 20260508002217 | 63 | 288 | 18.0 | 29.0 | 0.00 | 0.00 | 0.00 | 21 | 1015.6 |
| 20260508001718 | 64 | 285 | 18.0 | 26.0 | 0.00 | 0.00 | 0.00 | 21 | 1015.6 |
| 20260508001003 | 64 | 289 | 20.0 | 29.0 | 0.00 | 0.00 | 0.00 | 20 | 1015.6 |
| 20260508000718 | 63 | 287 | 20.0 | 29.0 | 0.00 | 0.00 | 0.00 | 20 | 1015.6 |
| 20260508000003 | 64 | 281 | 18.0 | 26.0 | 0.00 | 0.00 | 0.00 | 20 | 1015.6 |
| 20260507235503 | 64 | 281 | 17.0 | 29.0 | 0.00 | 0.00 | 0.00 | 19 | 1015.7 |
| 20260507235216 | 64 | 281 | 16.0 | 29.0 | 0.00 | 0.00 | 0.00 | 20 | 1015.7 |
| 20260507234718 | 64 | 276 | 16.0 | 24.0 | 0.00 | 0.00 | 0.00 | 20 | 1015.6 |
| 20260507234003 | 64 | 274 | 18.0 | 27.0 | 0.00 | 0.00 | 0.00 | 20 | 1015.8 |
| 20260507233503 | 63 | 275 | 19.0 | 29.0 | 0.00 | 0.00 | 0.00 | 20 | 1015.8 |
| 20260507233003 | 63 | 276 | 18.0 | 29.0 | 0.00 | 0.00 | 0.00 | 20 | 1015.8 |
| 20260507232503 | 64 | 277 | 16.0 | 29.0 | 0.00 | 0.00 | 0.00 | 19 | 1015.9 |
| 20260507232003 | 64 | 275 | 18.0 | 29.0 | 0.00 | 0.00 | 0.00 | 20 | 1015.9 |
| 20260507231717 | 63 | 273 | 19.0 | 29.0 | 0.00 | 0.00 | 0.00 | 19 | 1015.9 |
| 20260507231216 | 63 | 272 | 18.0 | 32.0 | 0.00 | 0.00 | 0.00 | 20 | 1015.9 |
| 20260507230503 | 63 | 277 | 15.0 | 26.0 | 0.00 | 0.00 | 0.00 | 20 | 1016.0 |
| 20260507230003 | 63 | 279 | 15.0 | 26.0 | 0.00 | 0.00 | 0.00 | 20 | 1016.1 |
| 20260507225503 | 64 | 275 | 16.0 | 26.0 | 0.00 | 0.00 | 0.00 | 19 | 1016.1 |
| 20260507225003 | 64 | 266 | 16.0 | 27.0 | 0.00 | 0.00 | 0.00 | 19 | 1016.1 |
| 20260507224504 | 64 | 267 | 15.0 | 27.0 | 0.00 | 0.00 | 0.00 | 20 | 1016.1 |
| 20260507224003 | 63 | 292 | 13.0 | 24.0 | 0.00 | 0.00 | 0.00 | 20 | 1016.2 |
| 20260507223717 | 63 | 291 | 13.0 | 24.0 | 0.00 | 0.00 | 0.00 | 20 | 1016.2 |
| 20260507223003 | 64 | 262 | 14.0 | 24.0 | 0.00 | 0.00 | 0.00 | 21 | 1016.2 |
| 20260507222503 | 64 | 267 | 13.0 | 24.0 | 0.00 | 0.00 | 0.00 | 19 | 1016.3 |
| 20260507222003 | 64 | 263 | 12.0 | 19.0 | 0.00 | 0.00 | 0.00 | 19 | 1016.4 |
| 20260507221503 | 63 | 260 | 13.0 | 21.0 | 0.00 | 0.00 | 0.00 | 21 | 1016.4 |
| 20260507221003 | 63 | 266 | 13.0 | 21.0 | 0.00 | 0.00 | 0.00 | 20 | 1016.5 |
| 20260507220503 | 63 | 255 | 12.0 | 21.0 | 0.00 | 0.00 | 0.00 | 20 | 1016.5 |
| 20260507220003 | 63 | 239 | 13.0 | 25.0 | 0.00 | 0.00 | 0.00 | 20 | 1016.5 |
| 20260507215503 | 63 | 235 | 15.0 | 25.0 | 0.00 | 0.00 | 0.00 | 19 | 1016.6 |
| 20260507215218 | 63 | 240 | 15.0 | 25.0 | 0.00 | 0.00 | 0.00 | 19 | 1016.6 |
| 20260507214503 | 65 | 244 | 11.0 | 24.0 | 0.00 | 0.00 | 0.00 | 19 | 1016.9 |
| 20260507214003 | 63 | 242 | 11.0 | 23.0 | 0.00 | 0.00 | 0.00 | 19 | 1016.9 |
| 20260507213503 | 63 | 240 | 15.0 | 24.0 | 0.00 | 0.00 | 0.00 | 18 | 1017.0 |
| 20260507213003 | 62 | 222 | 15.0 | 24.0 | 0.00 | 0.00 | 0.00 | 18 | 1017.1 |
| 20260507212503 | 61 | 216 | 13.0 | 23.0 | 0.00 | 0.00 | 0.00 | 19 | 1017.2 |
| 20260507212003 | 62 | 212 | 13.0 | 21.0 | 0.00 | 0.00 | 0.00 | 19 | 1017.3 |
| 20260507211719 | 62 | 209 | 12.0 | 25.0 | 0.00 | 0.00 | 0.00 | 18 | 1017.4 |
| 20260507211003 | 61 | 213 | 14.0 | 25.0 | 0.00 | 0.00 | 0.00 | 19 | 1017.5 |
| 20260507210716 | 61 | 206 | 13.0 | 23.0 | 0.00 | 0.00 | 0.00 | 18 | 1017.6 |
| 20260507210003 | 61 | 203 | 11.0 | 20.0 | 0.00 | 0.00 | 0.00 | 19 | 1017.7 |
| 20260507205503 | 61 | 215 | 13.0 | 22.0 | 0.00 | 0.00 | 0.00 | 19 | 1017.9 |
| 20260507205217 | 60 | 219 | 12.0 | 22.0 | 0.00 | 0.00 | 0.00 | 19 | 1017.8 |
| 20260507204503 | 60 | 225 | 9.0 | 19.0 | 0.00 | 0.00 | 0.00 | 19 | 1018.0 |
| 20260507204003 | 61 | 218 | 11.0 | 22.0 | 0.00 | 0.00 | 0.00 | 18 | 1018.1 |
| 20260507203503 | 60 | 210 | 13.0 | 22.0 | 0.00 | 0.00 | 0.00 | 18 | 1018.2 |
| 20260507203003 | 60 | 203 | 10.0 | 21.0 | 0.00 | 0.00 | 0.00 | 18 | 1018.2 |
| 20260507202503 | 60 | 211 | 10.0 | 21.0 | 0.00 | 0.00 | 0.00 | 19 | 1018.3 |
| 20260507202217 | 59 | 211 | 10.0 | 21.0 | 0.00 | 0.00 | 0.00 | 19 | 1018.4 |
| 20260507201503 | 60 | 194 | 10.0 | 19.0 | 0.00 | 0.00 | 0.00 | 18 | 1018.5 |
| 20260507201003 | 60 | 191 | 9.0 | 18.0 | 0.00 | 0.00 | 0.00 | 18 | 1018.6 |
| 20260507200716 | 60 | 210 | 9.0 | 21.0 | 0.00 | 0.00 | 0.00 | 18 | 1018.6 |
| 20260507200003 | 59 | 234 | 10.0 | 21.0 | 0.00 | 0.00 | 0.00 | 17 | 1018.6 |
| 20260507195503 | 58 | 204 | 10.0 | 20.0 | 0.00 | 0.00 | 0.00 | 18 | 1018.7 |
| 20260507195003 | 58 | 189 | 8.0 | 16.0 | 0.00 | 0.00 | 0.00 | 19 | 1018.8 |
| 20260507194718 | 58 | 192 | 8.0 | 15.0 | 0.00 | 0.00 | 0.00 | 17 | 1018.9 |
| 20260507194217 | 58 | 198 | 9.0 | 15.0 | 0.00 | 0.00 | 0.00 | 17 | 1019.0 |
| 20260507193503 | 58 | 225 | 6.0 | 15.0 | 0.00 | 0.00 | 0.00 | 17 | 1019.1 |
| 20260507193217 | 58 | 248 | 5.0 | 14.0 | 0.00 | 0.00 | 0.00 | 19 | 1019.2 |
| 20260507192503 | 58 | 227 | 4.0 | 12.0 | 0.00 | 0.00 | 0.00 | 18 | 1019.2 |
| 20260507192217 | 58 | 259 | 4.0 | 10.0 | 0.00 | 0.00 | 0.00 | 18 | 1019.2 |
| 20260507191718 | 56 | 272 | 9.0 | 19.0 | 0.00 | 0.00 | 0.00 | 19 | 1019.4 |
| 20260507191003 | 56 | 242 | 8.0 | 19.0 | 0.00 | 0.00 | 0.00 | 18 | 1019.4 |
| 20260507190718 | 56 | 223 | 8.0 | 15.0 | 0.00 | 0.00 | 0.00 | 19 | 1019.4 |
| 20260507190217 | 56 | 215 | 10.0 | 15.0 | 0.00 | 0.00 | 0.00 | 18 | 1019.5 |
| 20260507185503 | 57 | 231 | 7.0 | 15.0 | 0.00 | 0.00 | 0.00 | 19 | 1019.5 |
| 20260507185003 | 57 | 257 | 7.0 | 14.0 | 0.00 | 0.00 | 0.00 | 21 | 1019.6 |
| 20260507184503 | 56 | 250 | 9.0 | 14.0 | 0.00 | 0.00 | 0.00 | 20 | 1019.7 |
| 20260507184003 | 55 | 190 | 10.0 | 17.0 | 0.00 | 0.00 | 0.00 | 19 | 1019.9 |
| 20260507183503 | 55 | 166 | 9.0 | 17.0 | 0.00 | 0.00 | 0.00 | 20 | 1019.8 |
| 20260507183003 | 55 | 235 | 9.0 | 16.0 | 0.00 | 0.00 | 0.00 | 22 | 1019.9 |
| 20260507182503 | 55 | 242 | 9.0 | 18.0 | 0.00 | 0.00 | 0.00 | 20 | 1020.0 |
| 20260507182003 | 55 | 211 | 7.0 | 18.0 | 0.00 | 0.00 | 0.00 | 21 | 1020.0 |
| 20260507181503 | 54 | 191 | 6.0 | 12.0 | 0.00 | 0.00 | 0.00 | 21 | 1020.0 |
| 20260507181218 | 54 | 222 | 7.0 | 12.0 | 0.00 | 0.00 | 0.00 | 20 | 1020.1 |
| 20260507180503 | 54 | 254 | 7.0 | 12.0 | 0.00 | 0.00 | 0.00 | 21 | 1020.1 |
| 20260507180003 | 54 | 222 | 7.0 | 14.0 | 0.00 | 0.00 | 0.00 | 20 | 1020.2 |
| 20260507175503 | 54 | 177 | 6.0 | 14.0 | 0.00 | 0.00 | 0.00 | 21 | 1020.2 |
| 20260507175003 | 54 | 153 | 6.0 | 12.0 | 0.00 | 0.00 | 0.00 | 21 | 1020.3 |
| 20260507174717 | 53 | 187 | 6.0 | 12.0 | 0.00 | 0.00 | 0.00 | 22 | 1020.3 |
| 20260507174003 | 53 | 218 | 5.0 | 11.0 | 0.00 | 0.00 | 0.00 | 22 | 1020.3 |
| 20260507173503 | 52 | 220 | 8.0 | 17.0 | 0.00 | 0.00 | 0.00 | 22 | 1020.4 |
| 20260507173003 | 52 | 231 | 9.0 | 17.0 | 0.00 | 0.00 | 0.00 | 24 | 1020.4 |
| 20260507172503 | 52 | 212 | 8.0 | 16.0 | 0.00 | 0.00 | 0.00 | 23 | 1020.5 |
| 20260507172218 | 52 | 199 | 8.0 | 13.0 | 0.00 | 0.00 | 0.00 | 23 | 1020.5 |
| 20260507171503 | 52 | 205 | 6.0 | 12.0 | 0.00 | 0.00 | 0.00 | 22 | 1020.6 |
| 20260507171003 | 52 | 253 | 8.0 | 13.0 | 0.00 | 0.00 | 0.00 | 23 | 1020.6 |
| 20260507170717 | 51 | 266 | 8.0 | 14.0 | 0.00 | 0.00 | 0.00 | 24 | 1020.7 |
| 20260507170003 | 52 | 256 | 5.0 | 14.0 | 0.00 | 0.00 | 0.00 | 24 | 1020.6 |
| 20260507165503 | 51 | 267 | 4.0 | 12.0 | 0.00 | 0.00 | 0.00 | 22 | 1020.6 |
| 20260507165003 | 51 | 186 | 5.0 | 11.0 | 0.00 | 0.00 | 0.00 | 22 | 1020.8 |
| 20260507164717 | 51 | 188 | 6.0 | 12.0 | 0.00 | 0.00 | 0.00 | 22 | 1020.8 |
| 20260507164003 | 51 | 212 | 7.0 | 13.0 | 0.00 | 0.00 | 0.00 | 24 | 1020.9 |
| 20260507163717 | 51 | 226 | 7.0 | 13.0 | 0.00 | 0.00 | 0.00 | 23 | 1020.9 |
| 20260507163003 | 50 | 257 | 4.0 | 10.0 | 0.00 | 0.00 | 0.00 | 23 | 1021.0 |
| 20260507162503 | 51 | 65 | 3.0 | 9.0 | 0.00 | 0.00 | 0.00 | 23 | 1021.0 |
| 20260507162003 | 52 | 55 | 4.0 | 9.0 | 0.00 | 0.00 | 0.00 | 21 | 1021.0 |
| 20260507161503 | 52 | 74 | 3.0 | 10.0 | 0.00 | 0.00 | 0.00 | 21 | 1021.0 |
| 20260507161003 | 52 | 68 | 3.0 | 10.0 | 0.00 | 0.00 | 0.00 | 20 | 1021.0 |
| 20260507160503 | 50 | 22 | 2.0 | 7.0 | 0.00 | 0.00 | 0.00 | 22 | 1021.1 |
| 20260507160003 | 50 | 26 | 4.0 | 9.0 | 0.00 | 0.00 | 0.00 | 21 | 1021.1 |
| 20260507155503 | 50 | 62 | 5.0 | 9.0 | 0.00 | 0.00 | 0.00 | 21 | 1021.1 |
| 20260507155003 | 50 | 78 | 4.0 | 9.0 | 0.00 | 0.00 | 0.00 | 22 | 1021.2 |
| 20260507154716 | 50 | 64 | 3.0 | 9.0 | 0.00 | 0.00 | 0.00 | 22 | 1021.2 |
| 20260507154217 | 49 | 65 | 4.0 | 10.0 | 0.00 | 0.00 | 0.00 | 23 | 1021.4 |
| 20260507153504 | 49 | 52 | 4.0 | 10.0 | 0.00 | 0.00 | 0.00 | 22 | 1021.4 |
| 20260507153003 | 49 | 56 | 3.0 | 8.0 | 0.00 | 0.00 | 0.00 | 23 | 1021.4 |
| 20260507152716 | 49 | 67 | 3.0 | 8.0 | 0.00 | 0.00 | 0.00 | 23 | 1021.4 |
| 20260507152003 | 48 | 50 | 5.0 | 9.0 | 0.00 | 0.00 | 0.00 | 22 | 1021.5 |
| 20260507151503 | 48 | 42 | 6.0 | 10.0 | 0.00 | 0.00 | 0.00 | 24 | 1021.6 |
| 20260507151003 | 46 | 44 | 7.0 | 11.0 | 0.00 | 0.00 | 0.00 | 24 | 1021.6 |
| 20260507150503 | 46 | 52 | 8.0 | 11.0 | 0.00 | 0.00 | 0.00 | 23 | 1021.6 |
| 20260507150003 | 46 | 54 | 7.0 | 11.0 | 0.00 | 0.00 | 0.00 | 24 | 1021.6 |
| 20260507145716 | 46 | 54 | 8.0 | 11.0 | 0.00 | 0.00 | 0.00 | 24 | 1021.5 |
| 20260507145003 | 44 | 55 | 8.0 | 12.0 | 0.00 | 0.00 | 0.00 | 25 | 1021.6 |
| 20260507144503 | 44 | 54 | 8.0 | 12.0 | 0.00 | 0.00 | 0.00 | 27 | 1021.5 |
| 20260507144003 | 43 | 52 | 9.0 | 13.0 | 0.00 | 0.00 | 0.00 | 27 | 1021.6 |
| 20260507143503 | 42 | 50 | 9.0 | 13.0 | 0.00 | 0.00 | 0.00 | 27 | 1021.6 |
| 20260507143003 | 42 | 50 | 8.0 | 12.0 | 0.00 | 0.00 | 0.00 | 28 | 1021.6 |
| 20260507142503 | 41 | 53 | 9.0 | 12.0 | 0.00 | 0.00 | 0.00 | 29 | 1021.6 |
| 20260507142003 | 41 | 58 | 8.0 | 12.0 | 0.00 | 0.00 | 0.00 | 30 | 1021.7 |
| 20260507141718 | 40 | 62 | 8.0 | 12.0 | 0.00 | 0.00 | 0.00 | 30 | 1021.8 |
| 20260507141003 | 40 | 64 | 9.0 | 12.0 | 0.00 | 0.00 | 0.00 | 31 | 1021.7 |
| 20260507140503 | 39 | 61 | 9.0 | 13.0 | 0.00 | 0.00 | 0.00 | 32 | 1021.6 |
| 20260507140003 | 39 | 60 | 9.0 | 13.0 | 0.00 | 0.00 | 0.00 | 32 | 1021.7 |
| 20260507135718 | 39 | 57 | 8.0 | 13.0 | 0.00 | 0.00 | 0.00 | 33 | 1021.7 |
| 20260507135217 | 38 | 53 | 9.0 | 13.0 | 0.00 | 0.00 | 0.00 | 33 | 1021.5 |
| 20260507134503 | 38 | 53 | 8.0 | 13.0 | 0.00 | 0.00 | 0.00 | 33 | 1021.4 |
| 20260507134217 | 38 | 51 | 8.0 | 12.0 | 0.00 | 0.00 | 0.00 | 34 | 1021.4 |
| 20260507133503 | 37 | 48 | 8.0 | 13.0 | 0.00 | 0.00 | 0.00 | 35 | 1021.3 |
| 20260507133003 | 37 | 50 | 8.0 | 13.0 | 0.00 | 0.00 | 0.00 | 35 | 1021.2 |
| 20260507132503 | 36 | 50 | 8.0 | 12.0 | 0.00 | 0.00 | 0.00 | 35 | 1021.2 |
| 20260507132003 | 35 | 50 | 7.0 | 12.0 | 0.00 | 0.00 | 0.00 | 36 | 1021.1 |
| 20260507131717 | 35 | 48 | 7.0 | 11.0 | 0.00 | 0.00 | 0.00 | 38 | 1021.1 |
| 20260507131003 | 33 | 42 | 5.0 | 9.0 | 0.00 | 0.00 | 0.00 | 41 | 1021.1 |
| 20260507130717 | 32 | 41 | 5.0 | 9.0 | 0.00 | 0.00 | 0.00 | 43 | 1021.2 |
| 20260507130003 | 30 | 38 | 5.0 | 8.0 | 0.00 | 0.00 | 0.00 | 46 | 1021.2 |
| 20260507125503 | 29 | 35 | 6.0 | 9.0 | 0.00 | 0.00 | 0.00 | 47 | 1021.2 |
| 20260507125003 | 28 | 34 | 7.0 | 9.0 | 0.00 | 0.00 | 0.00 | 48 | 1021.2 |
| 20260507124718 | 28 | 34 | 7.0 | 9.0 | 0.00 | 0.00 | 0.00 | 48 | 1021.1 |
| 20260507124003 | 27 | 32 | 7.0 | 9.0 | 0.00 | 0.00 | 0.00 | 49 | 1021.0 |
| 20260507123503 | 26 | 34 | 7.0 | 9.0 | 0.00 | 0.00 | 0.00 | 52 | 1020.9 |
| 20260507123003 | 26 | 36 | 7.0 | 9.0 | 0.00 | 0.00 | 0.00 | 53 | 1021.0 |
| 20260507122717 | 25 | 36 | 7.0 | 9.0 | 0.00 | 0.00 | 0.00 | 53 | 1021.0 |
| 20260507122003 | 24 | 36 | 7.0 | 9.0 | 0.00 | 0.00 | 0.00 | 55 | 1020.9 |
| 20260507121503 | 24 | 35 | 7.0 | 9.0 | 0.00 | 0.00 | 0.00 | 56 | 1021.0 |
| 20260507121003 | 23 | 32 | 7.0 | 9.0 | 0.00 | 0.00 | 0.00 | 55 | 1020.9 |
| 20260507120503 | 24 | 29 | 6.0 | 8.0 | 0.00 | 0.00 | 0.00 | 55 | 1021.0 |
| 20260507120003 | 24 | 26 | 6.0 | 8.0 | 0.00 | 0.00 | 0.00 | 56 | 1021.0 |
| 20260507115503 | 23 | 27 | 6.0 | 8.0 | 0.00 | 0.00 | 0.00 | 57 | 1021.0 |